Time;durP1;ratioP1;P1;durP2;ratioP2;P2;SDS_P1;SDS_P2;PMS_P1;PMS_P2;Temp;Humidity;BMP_temperature;BMP_pressure;BME280_temperature;BME280_humidity;BME280_pressure;Samples;Min_cycle;Max_cycle;Signal;HPM_P1;HPM_P2
2023/09/24 00:02:13;;;;;;;8.93;2.17;;;12.50;99.90;;;;;;5065103;28;20059;-68
2023/09/24 00:04:45;;;;;;;5.82;1.90;;;12.50;99.90;;;;;;5066838;28;20409;-68
2023/09/24 00:07:11;;;;;;;6.10;2.10;;;12.50;99.90;;;;;;5063244;28;20513;-68
2023/09/24 00:09:37;;;;;;;8.15;2.42;;;12.50;99.90;;;;;;5061326;28;20056;-69
2023/09/24 00:12:03;;;;;;;7.13;2.40;;;12.40;99.90;;;;;;5051838;28;20041;-68
2023/09/24 00:14:30;;;;;;;6.18;2.40;;;12.40;99.90;;;;;;5053206;28;20044;-69
2023/09/24 00:16:57;;;;;;;8.60;2.53;;;12.40;99.90;;;;;;5053856;28;20044;-68
2023/09/24 00:19:24;;;;;;;7.82;2.22;;;12.40;99.90;;;;;;5049235;28;20410;-69
2023/09/24 00:21:50;;;;;;;7.95;2.30;;;12.40;99.90;;;;;;5059476;28;20040;-69
2023/09/24 00:24:17;;;;;;;5.78;2.00;;;12.40;99.90;;;;;;5060784;28;20516;-68
2023/09/24 00:26:46;;;;;;;9.77;2.63;;;12.40;99.90;;;;;;5065962;28;20509;-68
2023/09/24 00:29:13;;;;;;;5.53;2.17;;;12.40;99.90;;;;;;5061048;28;20409;-69
2023/09/24 00:31:39;;;;;;;5.72;2.03;;;12.30;99.90;;;;;;5059922;28;20048;-69
2023/09/24 00:34:05;;;;;;;8.13;2.38;;;12.30;99.90;;;;;;5053681;28;20152;-68
2023/09/24 00:36:35;;;;;;;7.95;2.75;;;12.30;99.90;;;;;;5047196;28;20048;-68
2023/09/24 00:39:01;;;;;;;10.52;3.00;;;12.30;99.90;;;;;;5029598;28;20049;-69
2023/09/24 00:41:27;;;;;;;10.30;2.72;;;12.30;99.90;;;;;;5061200;28;20596;-68
2023/09/24 00:43:53;;;;;;;6.43;2.30;;;12.20;99.90;;;;;;5031027;28;20045;-69
2023/09/24 00:46:21;;;;;;;8.02;2.38;;;12.20;99.90;;;;;;5038640;28;20049;-69
2023/09/24 00:48:48;;;;;;;6.22;2.25;;;12.20;99.90;;;;;;5049528;28;20076;-68
2023/09/24 00:51:15;;;;;;;7.45;2.63;;;12.20;99.90;;;;;;5046758;28;20519;-68
2023/09/24 00:53:41;;;;;;;5.75;2.30;;;12.20;99.90;;;;;;5053011;28;20052;-68
2023/09/24 00:56:08;;;;;;;7.95;2.50;;;12.20;99.90;;;;;;5054992;28;20048;-68
2023/09/24 00:58:36;;;;;;;11.52;2.97;;;12.10;99.90;;;;;;5048820;28;20123;-68
2023/09/24 01:01:06;;;;;;;6.20;2.33;;;12.10;99.90;;;;;;5062007;28;20505;-68
2023/09/24 01:03:32;;;;;;;8.60;2.90;;;12.10;99.90;;;;;;5047280;28;20076;-68
2023/09/24 01:05:58;;;;;;;8.52;3.03;;;12.10;99.90;;;;;;5046806;28;20051;-68
2023/09/24 01:08:25;;;;;;;7.97;2.80;;;12.10;99.90;;;;;;5055672;28;20803;-67
2023/09/24 01:10:51;;;;;;;8.85;2.70;;;12.00;99.90;;;;;;5042514;28;20044;-67
2023/09/24 01:13:24;;;;;;;6.82;2.72;;;12.00;99.90;;;;;;5052209;28;20059;-68
2023/09/24 01:15:50;;;;;;;5.95;2.70;;;12.00;99.90;;;;;;5065683;28;20045;-68
2023/09/24 01:18:18;;;;;;;8.00;3.13;;;12.00;99.90;;;;;;5058571;28;20539;-68
2023/09/24 01:20:44;;;;;;;11.32;3.17;;;11.90;99.90;;;;;;5053025;28;20090;-68
2023/09/24 01:23:13;;;;;;;9.02;2.47;;;11.90;99.90;;;;;;5068787;28;20200;-68
2023/09/24 01:25:40;;;;;;;7.20;2.67;;;11.90;99.90;;;;;;5038267;28;20097;-68
2023/09/24 01:28:07;;;;;;;10.02;3.20;;;11.90;99.90;;;;;;5060499;28;20047;-68
2023/09/24 01:30:34;;;;;;;9.30;3.22;;;11.90;99.90;;;;;;5059414;28;21178;-68
2023/09/24 01:33:01;;;;;;;9.55;2.85;;;11.90;99.90;;;;;;5060863;28;20024;-68
2023/09/24 01:35:28;;;;;;;8.05;2.65;;;11.90;99.90;;;;;;5056215;28;20047;-68
2023/09/24 01:38:05;;;;;;;8.85;2.92;;;11.80;99.90;;;;;;5042349;28;20120;-68
2023/09/24 01:40:38;;;;;;;7.65;2.90;;;11.80;99.90;;;;;;5070783;28;20060;-67
2023/09/24 01:43:05;;;;;;;5.07;2.65;;;11.80;99.90;;;;;;5074460;28;20062;-68
2023/09/24 01:45:34;;;;;;;6.68;2.75;;;11.80;99.90;;;;;;5065484;28;20040;-68
2023/09/24 01:48:02;;;;;;;8.57;3.03;;;11.70;99.90;;;;;;5062668;28;20040;-67
2023/09/24 01:50:29;;;;;;;10.68;2.80;;;11.80;99.90;;;;;;5039687;28;20040;-68
2023/09/24 01:52:58;;;;;;;9.65;3.10;;;11.70;99.90;;;;;;5049345;28;20438;-69
2023/09/24 01:55:28;;;;;;;9.82;3.30;;;11.70;99.90;;;;;;5038456;28;20040;-68
2023/09/24 01:57:55;;;;;;;8.82;2.63;;;11.70;99.90;;;;;;5041672;28;20041;-68
2023/09/24 02:00:25;;;;;;;9.75;2.85;;;11.70;99.90;;;;;;5060019;28;20430;-68
2023/09/24 02:02:59;;;;;;;9.18;2.90;;;11.60;99.90;;;;;;5092155;28;20063;-68
2023/09/24 02:05:35;;;;;;;7.35;2.88;;;11.60;99.90;;;;;;5033051;28;20506;-68
2023/09/24 02:08:06;;;;;;;8.30;2.53;;;11.60;99.90;;;;;;5031489;28;20077;-68
2023/09/24 02:10:33;;;;;;;9.82;2.53;;;11.60;99.90;;;;;;5037217;28;20486;-68
2023/09/24 02:13:00;;;;;;;9.77;2.53;;;11.60;99.90;;;;;;5057815;28;20047;-68
2023/09/24 02:15:27;;;;;;;5.65;2.67;;;11.60;99.90;;;;;;5080705;28;20886;-68
2023/09/24 02:17:53;;;;;;;6.00;2.80;;;11.60;99.90;;;;;;5060691;28;20452;-69
2023/09/24 02:20:31;;;;;;;7.45;2.53;;;11.50;99.90;;;;;;5055099;28;20045;-69
2023/09/24 02:23:02;;;;;;;8.50;2.67;;;11.50;99.90;;;;;;5078695;28;20055;-69
2023/09/24 02:25:37;;;;;;;6.82;2.35;;;11.50;99.90;;;;;;5060010;28;20052;-68
2023/09/24 02:28:04;;;;;;;8.63;3.00;;;11.50;99.90;;;;;;5069001;28;20056;-68
2023/09/24 02:30:31;;;;;;;6.07;2.22;;;11.50;99.90;;;;;;5059181;28;20049;-68
2023/09/24 02:33:01;;;;;;;5.07;2.40;;;11.50;99.90;;;;;;5058202;28;20048;-68
2023/09/24 02:35:26;;;;;;;6.25;2.35;;;11.50;99.90;;;;;;5063665;28;20123;-68
2023/09/24 02:37:53;;;;;;;6.57;2.70;;;11.50;99.90;;;;;;5055408;28;20143;-68
2023/09/24 02:40:28;;;;;;;10.25;2.38;;;11.40;99.90;;;;;;5051213;28;20601;-65
2023/09/24 02:42:58;;;;;;;7.22;2.65;;;11.50;99.90;;;;;;5033128;28;20048;-64
2023/09/24 02:45:26;;;;;;;6.77;2.77;;;11.40;99.90;;;;;;5062718;28;20044;-65
2023/09/24 02:47:52;;;;;;;5.38;2.40;;;11.40;99.90;;;;;;5038168;28;20299;-68
2023/09/24 02:50:22;;;;;;;6.95;2.58;;;11.60;99.90;;;;;;5056778;28;20810;-68
2023/09/24 02:52:49;;;;;;;8.35;3.10;;;11.50;99.90;;;;;;5032186;28;20052;-69
2023/09/24 02:55:15;;;;;;;6.93;2.75;;;11.40;99.90;;;;;;5037023;28;20047;-68
2023/09/24 02:57:44;;;;;;;6.32;2.83;;;11.40;99.90;;;;;;5084643;28;20114;-68
2023/09/24 03:00:18;;;;;;;8.60;3.30;;;11.40;99.90;;;;;;5057560;28;20081;-68
2023/09/24 03:02:53;;;;;;;8.13;3.38;;;11.40;99.90;;;;;;5055200;28;20622;-68
2023/09/24 03:05:26;;;;;;;7.32;3.10;;;11.40;99.90;;;;;;5053014;28;20080;-68
2023/09/24 03:07:56;;;;;;;7.50;3.40;;;11.40;99.90;;;;;;5045603;28;20088;-68
2023/09/24 03:10:22;;;;;;;9.85;3.15;;;11.40;99.90;;;;;;5052084;28;20127;-64
2023/09/24 03:12:49;;;;;;;9.73;3.28;;;11.40;99.90;;;;;;5061691;28;20110;-64
2023/09/24 03:15:15;;;;;;;7.93;3.45;;;11.40;99.90;;;;;;5033619;28;20037;-65
2023/09/24 03:17:43;;;;;;;8.70;3.75;;;11.40;99.90;;;;;;5049103;28;20120;-64
2023/09/24 03:20:19;;;;;;;11.45;3.40;;;11.40;99.90;;;;;;5051014;28;20052;-64
2023/09/24 03:22:48;;;;;;;6.20;3.55;;;11.40;99.90;;;;;;5056013;28;20049;-64
2023/09/24 03:25:25;;;;;;;7.90;4.07;;;11.50;99.90;;;;;;5035984;28;20951;-64
2023/09/24 03:27:53;;;;;;;8.07;3.70;;;11.50;99.90;;;;;;5087544;28;20045;-64
2023/09/24 03:30:19;;;;;;;8.60;3.38;;;11.50;99.90;;;;;;5055266;28;20051;-65
2023/09/24 03:32:49;;;;;;;6.65;3.60;;;11.50;99.90;;;;;;5034684;28;20048;-64
2023/09/24 03:35:19;;;;;;;8.18;3.78;;;11.50;99.90;;;;;;5080630;28;20048;-65
2023/09/24 03:37:45;;;;;;;9.32;3.55;;;11.50;99.90;;;;;;5067897;28;20341;-68
2023/09/24 03:40:14;;;;;;;11.90;3.88;;;11.50;99.90;;;;;;5088777;28;20060;-69
2023/09/24 03:42:40;;;;;;;8.15;3.55;;;11.50;99.90;;;;;;5051558;28;20055;-69
2023/09/24 03:45:09;;;;;;;9.38;3.92;;;11.50;99.90;;;;;;5033969;28;20052;-64
2023/09/24 03:47:36;;;;;;;9.40;3.60;;;11.50;99.90;;;;;;5033641;28;20052;-64
2023/09/24 03:50:03;;;;;;;8.98;3.95;;;11.50;99.90;;;;;;5035693;28;20046;-64
2023/09/24 03:52:30;;;;;;;9.02;4.05;;;11.50;99.90;;;;;;5078343;28;20127;-64
2023/09/24 03:54:59;;;;;;;8.13;3.95;;;11.50;99.90;;;;;;5052785;28;20040;-64
2023/09/24 03:57:29;;;;;;;12.20;3.90;;;11.50;99.90;;;;;;5061277;28;20063;-64
2023/09/24 03:59:56;;;;;;;8.07;4.53;;;11.50;99.90;;;;;;5052003;28;20040;-64
2023/09/24 04:02:23;;;;;;;9.27;4.50;;;11.50;99.90;;;;;;5053960;28;20052;-64
2023/09/24 04:04:49;;;;;;;7.07;4.20;;;11.50;99.90;;;;;;5057727;28;20039;-64
2023/09/24 04:07:15;;;;;;;13.25;4.80;;;11.50;99.90;;;;;;5040077;28;20044;-64
2023/09/24 04:09:45;;;;;;;10.55;4.45;;;11.50;99.90;;;;;;5045830;28;20052;-64
2023/09/24 04:12:12;;;;;;;10.05;4.45;;;11.40;99.90;;;;;;5063109;28;20050;-64
2023/09/24 04:14:39;;;;;;;7.72;3.83;;;11.60;99.90;;;;;;5031753;28;20574;-65
2023/09/24 04:17:09;;;;;;;11.65;5.13;;;11.40;99.90;;;;;;5081843;28;20211;-64
2023/09/24 04:19:35;;;;;;;11.50;4.55;;;11.40;99.90;;;;;;5066495;28;20059;-64
2023/09/24 04:22:01;;;;;;;10.63;5.20;;;11.40;99.90;;;;;;5058265;28;20044;-64
2023/09/24 04:24:26;;;;;;;9.43;4.78;;;11.40;99.90;;;;;;5042658;28;20794;-64
2023/09/24 04:26:54;;;;;;;10.57;4.85;;;11.40;99.90;;;;;;5056701;28;20045;-64
2023/09/24 04:29:20;;;;;;;11.73;5.25;;;11.30;99.90;;;;;;5043318;28;20137;-64
2023/09/24 04:31:46;;;;;;;11.35;5.20;;;11.30;99.90;;;;;;5051169;28;20733;-64
2023/09/24 04:34:13;;;;;;;9.60;5.00;;;11.30;99.90;;;;;;5031361;28;20123;-64
2023/09/24 04:36:44;;;;;;;10.68;5.32;;;11.30;99.90;;;;;;5079811;28;20236;-64
2023/09/24 04:39:10;;;;;;;8.20;5.07;;;11.30;99.90;;;;;;5047660;28;20052;-65
2023/09/24 04:41:42;;;;;;;10.10;4.50;;;11.20;99.90;;;;;;5050969;28;20047;-64
2023/09/24 04:44:08;;;;;;;10.23;5.20;;;11.20;99.90;;;;;;5052257;28;20047;-64
2023/09/24 04:46:35;;;;;;;11.77;5.10;;;11.30;99.90;;;;;;5057268;28;20053;-64
2023/09/24 04:49:04;;;;;;;9.05;4.85;;;11.20;99.90;;;;;;5088293;28;20056;-64
2023/09/24 04:51:32;;;;;;;10.30;5.00;;;11.20;99.90;;;;;;5060054;28;20434;-64
2023/09/24 04:53:59;;;;;;;10.50;5.28;;;11.20;99.90;;;;;;5052330;28;20048;-64
2023/09/24 04:56:25;;;;;;;9.90;5.57;;;11.20;99.90;;;;;;5054313;28;20132;-64
2023/09/24 04:58:50;;;;;;;9.68;5.07;;;11.10;99.90;;;;;;5051079;28;20082;-64
2023/09/24 05:01:16;;;;;;;13.88;5.85;;;11.10;99.90;;;;;;5058999;28;20047;-64
2023/09/24 05:03:45;;;;;;;13.20;5.55;;;11.10;99.90;;;;;;5042641;28;20827;-64
2023/09/24 05:06:11;;;;;;;10.38;5.63;;;11.10;99.90;;;;;;5048196;28;20102;-64
2023/09/24 05:08:36;;;;;;;10.55;5.10;;;11.10;99.90;;;;;;5036803;28;20070;-64
2023/09/24 05:11:03;;;;;;;12.30;5.85;;;11.10;99.90;;;;;;5036441;28;20036;-64
2023/09/24 05:13:29;;;;;;;10.82;5.15;;;11.10;99.90;;;;;;5048576;28;20073;-64
2023/09/24 05:15:59;;;;;;;10.95;5.30;;;11.10;99.90;;;;;;5050344;28;20430;-65
2023/09/24 05:18:29;;;;;;;9.60;5.15;;;11.00;99.90;;;;;;5042245;28;20131;-64
2023/09/24 05:20:56;;;;;;;10.85;5.43;;;11.00;99.90;;;;;;5036057;28;20640;-64
2023/09/24 05:23:22;;;;;;;13.20;5.05;;;11.10;99.90;;;;;;5041054;28;20783;-64
2023/09/24 05:25:49;;;;;;;9.50;4.82;;;11.00;99.90;;;;;;5041694;28;20050;-64
2023/09/24 05:28:15;;;;;;;12.02;5.53;;;11.00;99.90;;;;;;5058084;28;20123;-64
2023/09/24 05:30:40;;;;;;;12.10;5.22;;;11.00;99.90;;;;;;5034772;28;21006;-64
2023/09/24 05:33:07;;;;;;;13.60;5.60;;;11.00;99.90;;;;;;5082998;28;20097;-64
2023/09/24 05:35:33;;;;;;;10.40;5.40;;;11.00;99.90;;;;;;5057252;28;20088;-64
2023/09/24 05:37:58;;;;;;;12.68;5.47;;;11.00;99.90;;;;;;5051202;28;20415;-69
2023/09/24 05:40:24;;;;;;;11.93;5.72;;;10.90;99.90;;;;;;5045837;28;20055;-69
2023/09/24 05:42:50;;;;;;;12.45;4.75;;;11.00;99.90;;;;;;5035084;28;20048;-64
2023/09/24 05:45:16;;;;;;;11.75;5.55;;;11.00;99.90;;;;;;5059437;28;20048;-64
2023/09/24 05:47:42;;;;;;;12.60;5.68;;;10.90;99.90;;;;;;5052195;28;20063;-64
2023/09/24 05:50:09;;;;;;;10.00;5.40;;;10.90;99.90;;;;;;5035302;28;20033;-64
2023/09/24 05:52:34;;;;;;;10.38;5.55;;;10.90;99.90;;;;;;5063454;28;20748;-64
2023/09/24 05:55:02;;;;;;;10.68;5.65;;;10.90;99.90;;;;;;5056150;28;20049;-65
2023/09/24 05:57:28;;;;;;;13.85;5.28;;;10.90;99.90;;;;;;5058746;28;20757;-69
2023/09/24 05:59:56;;;;;;;12.80;6.05;;;11.00;99.90;;;;;;5056797;28;20048;-68
2023/09/24 06:02:25;;;;;;;9.25;5.40;;;11.00;99.90;;;;;;5059104;28;20058;-64
2023/09/24 06:04:52;;;;;;;14.60;6.00;;;11.00;99.90;;;;;;5035136;28;20546;-64
2023/09/24 06:07:17;;;;;;;13.07;5.20;;;11.00;99.90;;;;;;5070935;28;20056;-64
2023/09/24 06:09:43;;;;;;;13.95;5.90;;;11.00;99.90;;;;;;5047541;28;20040;-69
2023/09/24 06:12:09;;;;;;;12.10;5.63;;;11.00;99.90;;;;;;5037968;28;20194;-69
2023/09/24 06:14:34;;;;;;;12.45;5.57;;;11.10;99.90;;;;;;5057066;28;21142;-69
2023/09/24 06:17:00;;;;;;;10.65;5.35;;;11.10;99.90;;;;;;5034575;28;20489;-69
2023/09/24 06:19:26;;;;;;;12.20;5.03;;;11.20;99.90;;;;;;5060181;28;20048;-69
2023/09/24 06:21:52;;;;;;;12.00;5.57;;;11.20;99.90;;;;;;5054648;28;20040;-69
2023/09/24 06:24:19;;;;;;;9.55;4.78;;;11.30;99.90;;;;;;5054529;28;20083;-69
2023/09/24 06:26:45;;;;;;;13.40;4.95;;;11.30;99.90;;;;;;5053320;28;20053;-69
2023/09/24 06:29:11;;;;;;;10.63;4.95;;;11.20;99.90;;;;;;5066379;28;20490;-69
2023/09/24 06:31:38;;;;;;;12.20;5.00;;;11.30;99.90;;;;;;5035038;28;20127;-70
2023/09/24 06:34:04;;;;;;;11.93;5.22;;;11.30;99.90;;;;;;5068433;28;20087;-68
2023/09/24 06:36:30;;;;;;;10.32;5.38;;;11.30;99.90;;;;;;5043907;28;20577;-68
2023/09/24 06:38:56;;;;;;;11.90;5.38;;;11.30;99.90;;;;;;5036569;28;20591;-69
2023/09/24 06:41:25;;;;;;;11.18;5.30;;;11.30;99.90;;;;;;5061593;28;20056;-69
2023/09/24 06:43:50;;;;;;;14.90;6.00;;;11.30;99.90;;;;;;5038876;28;20045;-69
2023/09/24 06:46:16;;;;;;;10.63;5.18;;;11.30;99.90;;;;;;5034708;28;20383;-69
2023/09/24 06:48:42;;;;;;;9.18;4.75;;;11.40;99.90;;;;;;5051139;28;20068;-68
2023/09/24 06:51:10;;;;;;;13.50;4.93;;;11.40;99.90;;;;;;5041954;28;20041;-64
2023/09/24 06:53:38;;;;;;;16.25;5.03;;;11.40;99.90;;;;;;5053776;28;20058;-64
2023/09/24 06:56:05;;;;;;;11.23;5.32;;;11.50;99.90;;;;;;5041069;28;20040;-64
2023/09/24 06:58:33;;;;;;;19.50;5.60;;;11.40;99.90;;;;;;5054460;28;20059;-64
2023/09/24 07:01:06;;;;;;;13.88;5.85;;;11.50;99.90;;;;;;5089133;28;20044;-64
2023/09/24 07:03:32;;;;;;;11.23;5.43;;;11.60;99.90;;;;;;5041571;28;20177;-65
2023/09/24 07:05:59;;;;;;;10.18;4.75;;;11.70;99.90;;;;;;5044148;28;20055;-65
2023/09/24 07:08:25;;;;;;;12.02;5.10;;;11.80;99.90;;;;;;5042762;28;20124;-65
2023/09/24 07:11:25;;;;;;;9.90;4.88;;;11.90;99.90;;;;;;5028695;28;20056;-65
2023/09/24 07:13:51;;;;;;;9.32;4.82;;;12.00;99.90;;;;;;5040292;28;20137;-65
2023/09/24 07:16:25;;;;;;;9.35;4.30;;;12.10;99.90;;;;;;5034439;28;20535;-65
2023/09/24 07:18:51;;;;;;;11.90;5.10;;;12.20;99.90;;;;;;5042505;28;20059;-64
2023/09/24 07:21:24;;;;;;;12.85;4.18;;;12.30;99.90;;;;;;5017991;28;20067;-65
2023/09/24 07:23:52;;;;;;;13.55;4.90;;;12.40;99.90;;;;;;5058270;28;20045;-65
2023/09/24 07:26:18;;;;;;;12.93;4.88;;;12.50;99.90;;;;;;5028397;28;20147;-65
2023/09/24 07:28:45;;;;;;;10.82;3.85;;;12.60;99.90;;;;;;5051490;28;20093;-65
2023/09/24 07:31:22;;;;;;;9.73;3.90;;;12.60;99.90;;;;;;5052747;28;20167;-66
2023/09/24 07:33:59;;;;;;;10.77;4.32;;;12.70;99.90;;;;;;5050551;28;20052;-65
2023/09/24 07:36:25;;;;;;;10.85;4.00;;;13.00;99.90;;;;;;5063575;28;20059;-65
2023/09/24 07:38:51;;;;;;;11.15;4.30;;;12.90;99.90;;;;;;5045227;28;20092;-65
2023/09/24 07:41:19;;;;;;;11.02;4.20;;;13.10;99.90;;;;;;5050326;28;20305;-65
2023/09/24 07:43:45;;;;;;;11.60;3.92;;;13.20;99.90;;;;;;5071608;28;20070;-65
2023/09/24 07:46:15;;;;;;;13.25;4.05;;;13.30;99.90;;;;;;5051153;28;20052;-65
2023/09/24 07:48:46;;;;;;;9.70;4.05;;;13.30;99.90;;;;;;5027553;28;20045;-70
2023/09/24 07:51:13;;;;;;;13.48;4.25;;;13.40;99.90;;;;;;5055514;28;20068;-69
2023/09/24 07:53:38;;;;;;;8.77;3.85;;;13.60;99.90;;;;;;5045567;28;20067;-70
2023/09/24 07:56:09;;;;;;;9.43;3.88;;;13.60;99.90;;;;;;5051208;28;20036;-69
2023/09/24 07:58:37;;;;;;;9.18;4.13;;;13.70;99.90;;;;;;5051536;28;20051;-69
2023/09/24 08:01:14;;;;;;;12.02;4.13;;;13.70;99.90;;;;;;5047902;28;20040;-69
2023/09/24 08:03:45;;;;;;;8.35;4.15;;;13.80;99.90;;;;;;5037851;28;20040;-68
2023/09/24 08:06:10;;;;;;;;;;;13.90;99.90;;;;;;5040042;28;20044;-65
2023/09/24 08:08:37;;;;;;;10.30;4.05;;;14.00;99.90;;;;;;5053325;28;20049;-65
2023/09/24 08:11:03;;;;;;;8.43;3.85;;;14.10;99.90;;;;;;5050867;28;20075;-65
2023/09/24 08:13:29;;;;;;;10.10;3.63;;;14.20;99.90;;;;;;5056745;28;20642;-65
2023/09/24 08:15:56;;;;;;;9.02;4.35;;;14.30;99.90;;;;;;5054784;28;20055;-65
2023/09/24 08:18:23;;;;;;;8.07;3.58;;;14.30;99.90;;;;;;5038078;28;20551;-65
2023/09/24 08:20:49;;;;;;;8.43;3.90;;;14.40;99.90;;;;;;5056279;28;20688;-65
2023/09/24 08:23:15;;;;;;;10.35;3.95;;;14.40;99.90;;;;;;5057647;28;20044;-65
2023/09/24 08:25:41;;;;;;;8.57;3.50;;;14.40;99.90;;;;;;5057056;28;22763;-70
2023/09/24 08:28:08;;;;;;;8.63;4.00;;;14.50;99.90;;;;;;5055536;28;20053;-69
2023/09/24 08:30:36;;;;;;;10.63;4.60;;;14.50;99.90;;;;;;5052051;28;20513;-69
2023/09/24 08:33:04;;;;;;;9.50;3.75;;;14.50;99.90;;;;;;5059294;28;20056;-70
2023/09/24 08:35:29;;;;;;;13.60;3.40;;;14.60;99.90;;;;;;5044949;28;20076;-69
2023/09/24 08:37:56;;;;;;;10.27;3.58;;;14.60;99.90;;;;;;5059129;28;20147;-69
2023/09/24 08:40:24;;;;;;;8.02;3.35;;;14.70;99.90;;;;;;5057958;28;20117;-69
2023/09/24 08:42:50;;;;;;;10.35;4.07;;;14.70;99.90;;;;;;5056470;28;20485;-69
2023/09/24 08:45:19;;;;;;;13.85;4.13;;;14.80;99.90;;;;;;5040476;28;20163;-69
2023/09/24 08:47:46;;;;;;;8.93;3.38;;;14.80;99.90;;;;;;5059634;28;20032;-69
2023/09/24 08:50:13;;;;;;;9.65;3.75;;;14.90;99.90;;;;;;5057661;28;20057;-69
2023/09/24 08:52:43;;;;;;;14.15;3.60;;;15.00;99.90;;;;;;5036573;28;20063;-69
2023/09/24 08:55:10;;;;;;;11.32;3.60;;;15.10;99.90;;;;;;5050978;28;20041;-69
2023/09/24 08:57:42;;;;;;;9.30;3.40;;;15.10;99.90;;;;;;5053168;28;20202;-69
2023/09/24 09:00:11;;;;;;;9.07;3.30;;;15.20;99.90;;;;;;5058553;28;20420;-69
2023/09/24 09:02:39;;;;;;;12.27;3.80;;;15.20;99.90;;;;;;5053157;28;20059;-69
2023/09/24 09:05:09;;;;;;;8.32;3.10;;;15.30;99.90;;;;;;5052796;28;20549;-69
2023/09/24 09:07:35;;;;;;;11.50;4.13;;;15.30;99.90;;;;;;5047950;28;20052;-69
2023/09/24 09:10:03;;;;;;;9.00;2.97;;;15.40;99.90;;;;;;5040591;28;20251;-69
2023/09/24 09:12:29;;;;;;;8.73;3.53;;;15.40;99.90;;;;;;5056823;28;20064;-69
2023/09/24 09:14:56;;;;;;;9.63;3.38;;;15.50;99.90;;;;;;5053036;28;20576;-69
2023/09/24 09:17:22;;;;;;;8.45;2.90;;;15.50;99.90;;;;;;5055690;28;20505;-69
2023/09/24 09:19:55;;;;;;;7.57;3.13;;;15.60;99.90;;;;;;5055120;28;20049;-69
2023/09/24 09:22:23;;;;;;;8.93;2.65;;;15.60;99.90;;;;;;5055511;28;20393;-69
2023/09/24 09:25:08;;;;;;;9.77;2.60;;;15.70;99.90;;;;;;5048638;28;20053;-69
2023/09/24 09:27:35;;;;;;;14.57;2.65;;;15.70;99.90;;;;;;5053173;28;20131;-69
2023/09/24 09:30:13;;;;;;;10.07;2.70;;;15.80;99.90;;;;;;5054698;28;20053;-69
2023/09/24 09:32:39;;;;;;;8.48;2.78;;;15.80;99.90;;;;;;5033803;28;20052;-69
2023/09/24 09:35:05;;;;;;;10.43;2.88;;;15.80;99.90;;;;;;5057389;28;20036;-69
2023/09/24 09:37:31;;;;;;;11.07;2.78;;;15.80;99.90;;;;;;5057070;28;20661;-69
2023/09/24 09:39:57;;;;;;;9.35;2.60;;;15.90;99.90;;;;;;5054932;28;20045;-70
2023/09/24 09:42:25;;;;;;;10.55;2.65;;;15.90;99.90;;;;;;5053689;28;20509;-69
2023/09/24 09:44:54;;;;;;;10.77;2.25;;;15.90;99.90;;;;;;5037750;28;20046;-68
2023/09/24 09:47:24;;;;;;;9.05;2.85;;;15.90;99.90;;;;;;5053056;28;20119;-69
2023/09/24 09:50:00;;;;;;;6.22;1.95;;;16.00;99.90;;;;;;5038584;28;20083;-68
2023/09/24 09:52:35;;;;;;;8.73;2.63;;;16.00;99.90;;;;;;5058011;28;20079;-68
2023/09/24 09:55:06;;;;;;;8.73;2.58;;;16.00;99.90;;;;;;5036281;28;20041;-69
2023/09/24 09:57:33;;;;;;;9.88;2.30;;;16.10;99.90;;;;;;5059732;28;20056;-69
2023/09/24 10:00:05;;;;;;;7.22;2.50;;;16.10;99.90;;;;;;5053247;28;20043;-69
2023/09/24 10:02:32;;;;;;;8.05;2.33;;;16.10;99.90;;;;;;5051967;28;20052;-69
2023/09/24 10:04:58;;;;;;;11.40;2.47;;;16.10;99.90;;;;;;5059886;28;20143;-68
2023/09/24 10:07:24;;;;;;;13.18;4.28;;;16.20;99.90;;;;;;5058818;28;20059;-69
2023/09/24 10:09:50;;;;;;;9.60;2.80;;;16.20;99.90;;;;;;5055063;28;20044;-69
2023/09/24 10:12:36;;;;;;;8.15;2.33;;;16.20;99.90;;;;;;5088394;28;20076;-69
2023/09/24 10:15:25;;;;;;;7.50;2.30;;;16.30;99.90;;;;;;5032701;28;20942;-68
2023/09/24 10:18:10;;;;;;;10.55;2.47;;;16.30;99.90;;;;;;5049710;28;20061;-69
2023/09/24 10:20:55;;;;;;;8.13;1.88;;;16.40;99.90;;;;;;5054651;28;20429;-69
2023/09/24 10:23:32;;;;;;;8.15;2.28;;;16.40;99.90;;;;;;5054510;28;20056;-69
2023/09/24 10:26:00;;;;;;;6.93;2.00;;;16.40;99.90;;;;;;5036784;28;20082;-70
2023/09/24 10:28:48;;;;;;;8.30;1.90;;;16.50;99.90;;;;;;5045787;28;20618;-69
2023/09/24 10:31:16;;;;;;;11.73;2.10;;;16.50;99.90;;;;;;5061585;28;20036;-69
2023/09/24 10:34:02;;;;;;;9.55;1.90;;;16.60;99.90;;;;;;5056194;28;20045;-69
2023/09/24 10:36:29;;;;;;;5.25;1.50;;;16.60;99.90;;;;;;5070097;28;20049;-70
2023/09/24 10:39:07;;;;;;;7.10;2.17;;;16.60;99.90;;;;;;5072724;28;20576;-70
2023/09/24 10:41:35;;;;;;;8.82;2.05;;;16.60;99.90;;;;;;5043588;28;20059;-70
2023/09/24 10:44:20;;;;;;;7.40;2.10;;;16.60;99.90;;;;;;5059824;28;20564;-70
2023/09/24 10:46:46;;;;;;;7.38;2.10;;;16.70;99.90;;;;;;5030437;28;20075;-69
2023/09/24 10:49:24;;;;;;;6.82;1.92;;;16.70;99.90;;;;;;5029504;28;20044;-69
2023/09/24 10:52:00;;;;;;;8.82;2.10;;;16.70;99.90;;;;;;5046735;28;20134;-70
2023/09/24 10:54:26;;;;;;;5.82;1.80;;;16.70;99.90;;;;;;5050020;28;20059;-69
2023/09/24 10:56:52;;;;;;;7.95;2.38;;;16.70;99.90;;;;;;5035252;28;20057;-70
2023/09/24 10:59:34;;;;;;;6.43;1.67;;;16.70;99.90;;;;;;5049444;28;20509;-70
2023/09/24 11:02:18;;;;;;;7.13;1.80;;;16.80;99.90;;;;;;5044698;28;20064;-69
2023/09/24 11:04:44;;;;;;;6.22;2.10;;;16.80;99.90;;;;;;5049820;28;20049;-69
2023/09/24 11:07:11;;;;;;;7.78;1.77;;;16.80;99.90;;;;;;5073490;28;20331;-69
2023/09/24 11:09:37;;;;;;;6.30;1.73;;;16.90;99.90;;;;;;5030615;28;20057;-70
2023/09/24 11:12:09;;;;;;;9.20;2.70;;;16.90;99.90;;;;;;5043908;28;20379;-70
2023/09/24 11:14:35;;;;;;;6.30;1.50;;;17.00;99.90;;;;;;5054435;28;20040;-69
2023/09/24 11:17:01;;;;;;;9.52;2.05;;;17.10;99.90;;;;;;5028520;28;20366;-70
2023/09/24 11:19:48;;;;;;;7.53;2.03;;;17.10;99.90;;;;;;5040122;28;20048;-69
2023/09/24 11:22:28;;;;;;;7.47;1.80;;;17.20;99.90;;;;;;5031702;28;20135;-70
2023/09/24 11:25:14;;;;;;;6.55;1.98;;;17.20;99.90;;;;;;5042067;28;20118;-70
2023/09/24 11:27:51;;;;;;;5.82;1.80;;;17.30;99.90;;;;;;5046847;28;20084;-69
2023/09/24 11:30:18;;;;;;;7.20;1.65;;;17.30;99.90;;;;;;5042181;28;20041;-66
2023/09/24 11:32:51;;;;;;;5.80;1.70;;;17.30;99.90;;;;;;5044426;28;20048;-65
2023/09/24 11:35:19;;;;;;;6.15;1.50;;;17.40;99.90;;;;;;5025520;28;20041;-66
2023/09/24 11:37:46;;;;;;;6.95;1.75;;;17.50;99.90;;;;;;5027051;28;20053;-70
2023/09/24 11:40:33;;;;;;;4.68;1.55;;;17.50;99.90;;;;;;5038463;28;20148;-66
2023/09/24 11:43:06;;;;;;;7.88;2.00;;;17.50;99.90;;;;;;5038114;28;20049;-65
2023/09/24 11:45:42;;;;;;;7.68;1.85;;;17.50;99.90;;;;;;5049530;28;20052;-66
2023/09/24 11:48:13;;;;;;;6.15;1.50;;;17.50;99.90;;;;;;5027965;28;20048;-66
2023/09/24 11:50:41;;;;;;;7.18;1.50;;;17.60;99.90;;;;;;5046223;28;20510;-65
2023/09/24 11:53:07;;;;;;;5.88;1.50;;;17.60;99.90;;;;;;5042308;28;20055;-65
2023/09/24 11:55:34;;;;;;;7.28;1.85;;;17.60;99.90;;;;;;5030296;28;20140;-65
2023/09/24 11:58:00;;;;;;;5.50;1.50;;;17.60;99.90;;;;;;5032813;28;20049;-66
2023/09/24 12:00:26;;;;;;;6.53;2.10;;;17.60;99.90;;;;;;5079710;28;20056;-66
2023/09/24 12:02:51;;;;;;;7.30;1.92;;;17.60;99.90;;;;;;5046793;28;20053;-66
2023/09/24 12:05:17;;;;;;;6.82;1.52;;;17.60;99.90;;;;;;5046976;28;20041;-66
2023/09/24 12:07:43;;;;;;;6.30;1.92;;;17.60;99.90;;;;;;5045966;28;20053;-66
2023/09/24 12:10:09;;;;;;;9.45;1.80;;;17.60;99.90;;;;;;5044403;28;20063;-66
2023/09/24 12:12:35;;;;;;;6.55;1.70;;;17.70;99.90;;;;;;5039967;28;20049;-65
2023/09/24 12:15:01;;;;;;;6.95;1.60;;;17.70;99.90;;;;;;5029084;28;20055;-66
2023/09/24 12:17:27;;;;;;;6.03;1.50;;;17.80;99.90;;;;;;5031246;28;20048;-67
2023/09/24 12:19:53;;;;;;;6.15;1.75;;;17.90;99.90;;;;;;5043194;28;20067;-67
2023/09/24 12:22:20;;;;;;;8.27;1.85;;;17.90;99.90;;;;;;5028575;28;20045;-66
2023/09/24 12:24:46;;;;;;;7.18;1.42;;;17.90;99.90;;;;;;5033630;28;20057;-66
2023/09/24 12:27:15;;;;;;;5.03;1.33;;;18.00;99.90;;;;;;5042669;28;20087;-66
2023/09/24 12:29:41;;;;;;;12.52;1.65;;;18.00;99.90;;;;;;5042002;28;20083;-65
2023/09/24 12:32:07;;;;;;;5.85;1.60;;;18.10;99.90;;;;;;5024859;28;20469;-66
2023/09/24 12:34:32;;;;;;;5.70;1.80;;;18.10;99.90;;;;;;5030850;28;20206;-66
2023/09/24 12:36:58;;;;;;;6.32;2.10;;;18.20;99.90;;;;;;5048254;28;20044;-65
2023/09/24 12:39:24;;;;;;;5.78;1.45;;;18.20;99.90;;;;;;5039671;28;20132;-66
2023/09/24 12:41:50;;;;;;;6.22;1.35;;;18.30;99.90;;;;;;5065493;28;21587;-66
2023/09/24 12:44:17;;;;;;;5.00;1.48;;;18.30;99.90;;;;;;5043433;28;20051;-66
2023/09/24 12:46:43;;;;;;;6.13;1.80;;;18.30;99.90;;;;;;5029984;28;20048;-66
2023/09/24 12:49:09;;;;;;;5.75;1.60;;;18.40;99.90;;;;;;5042695;28;20413;-66
2023/09/24 12:51:35;;;;;;;6.75;1.65;;;18.40;99.90;;;;;;5067746;28;20044;-66